sensor_id;sensor_type;location;lat;lon;timestamp;P1;durP1;ratioP1;P2;durP2;ratioP2
29314;SDS011;16320;53.954;9.506;2022-10-31T00:00:06;96.25;;;49.00;;
29314;SDS011;16320;53.954;9.506;2022-10-31T00:03:13;98.72;;;50.38;;
29314;SDS011;16320;53.954;9.506;2022-10-31T00:06:17;104.22;;;49.55;;
29314;SDS011;16320;53.954;9.506;2022-10-31T00:09:22;98.45;;;48.45;;
29314;SDS011;16320;53.954;9.506;2022-10-31T00:12:26;98.85;;;48.65;;
29314;SDS011;16320;53.954;9.506;2022-10-31T00:15:32;92.82;;;48.00;;
29314;SDS011;16320;53.954;9.506;2022-10-31T00:18:41;92.65;;;48.00;;
29314;SDS011;16320;53.954;9.506;2022-10-31T00:21:46;91.80;;;48.47;;
29314;SDS011;16320;53.954;9.506;2022-10-31T00:24:51;91.97;;;47.78;;
29314;SDS011;16320;53.954;9.506;2022-10-31T00:27:55;97.93;;;50.30;;
29314;SDS011;16320;53.954;9.506;2022-10-31T00:31:00;100.75;;;49.97;;
29314;SDS011;16320;53.954;9.506;2022-10-31T00:34:06;96.75;;;49.58;;
29314;SDS011;16320;53.954;9.506;2022-10-31T00:37:10;111.95;;;54.22;;
29314;SDS011;16320;53.954;9.506;2022-10-31T00:40:15;111.50;;;55.63;;
29314;SDS011;16320;53.954;9.506;2022-10-31T00:43:19;118.82;;;54.40;;
29314;SDS011;16320;53.954;9.506;2022-10-31T00:46:24;120.18;;;55.42;;
29314;SDS011;16320;53.954;9.506;2022-10-31T00:49:28;118.18;;;56.67;;
29314;SDS011;16320;53.954;9.506;2022-10-31T00:52:33;130.13;;;58.45;;
29314;SDS011;16320;53.954;9.506;2022-10-31T00:55:38;119.47;;;60.33;;
29314;SDS011;16320;53.954;9.506;2022-10-31T00:58:42;126.85;;;62.60;;
29314;SDS011;16320;53.954;9.506;2022-10-31T01:01:46;146.93;;;63.00;;
29314;SDS011;16320;53.954;9.506;2022-10-31T01:04:51;126.35;;;60.75;;
29314;SDS011;16320;53.954;9.506;2022-10-31T01:07:55;152.50;;;65.72;;
29314;SDS011;16320;53.954;9.506;2022-10-31T01:14:08;137.60;;;63.42;;
29314;SDS011;16320;53.954;9.506;2022-10-31T01:17:13;155.85;;;64.43;;
29314;SDS011;16320;53.954;9.506;2022-10-31T01:20:19;167.73;;;67.35;;
29314;SDS011;16320;53.954;9.506;2022-10-31T01:23:24;151.88;;;64.18;;
29314;SDS011;16320;53.954;9.506;2022-10-31T01:26:29;157.95;;;64.68;;
29314;SDS011;16320;53.954;9.506;2022-10-31T01:29:36;150.05;;;63.65;;
29314;SDS011;16320;53.954;9.506;2022-10-31T01:32:41;155.23;;;64.00;;
29314;SDS011;16320;53.954;9.506;2022-10-31T01:35:45;164.27;;;66.43;;
29314;SDS011;16320;53.954;9.506;2022-10-31T01:38:50;176.32;;;65.97;;
29314;SDS011;16320;53.954;9.506;2022-10-31T01:41:58;168.52;;;65.20;;
29314;SDS011;16320;53.954;9.506;2022-10-31T01:45:03;162.57;;;64.88;;
29314;SDS011;16320;53.954;9.506;2022-10-31T01:48:11;179.02;;;69.07;;
29314;SDS011;16320;53.954;9.506;2022-10-31T01:51:20;180.82;;;68.88;;
29314;SDS011;16320;53.954;9.506;2022-10-31T01:54:34;174.63;;;67.95;;
29314;SDS011;16320;53.954;9.506;2022-10-31T01:57:45;172.15;;;68.22;;
29314;SDS011;16320;53.954;9.506;2022-10-31T02:00:56;187.35;;;67.32;;
29314;SDS011;16320;53.954;9.506;2022-10-31T02:04:09;165.95;;;66.18;;
29314;SDS011;16320;53.954;9.506;2022-10-31T02:07:16;181.85;;;67.00;;
29314;SDS011;16320;53.954;9.506;2022-10-31T02:10:31;179.90;;;64.97;;
29314;SDS011;16320;53.954;9.506;2022-10-31T02:13:39;172.50;;;64.72;;
29314;SDS011;16320;53.954;9.506;2022-10-31T02:27:11;165.18;;;57.90;;
29314;SDS011;16320;53.954;9.506;2022-10-31T02:45:34;123.18;;;44.53;;
29314;SDS011;16320;53.954;9.506;2022-10-31T02:48:48;111.15;;;41.17;;
29314;SDS011;16320;53.954;9.506;2022-10-31T02:51:58;119.13;;;41.60;;
29314;SDS011;16320;53.954;9.506;2022-10-31T02:55:09;99.00;;;37.97;;
29314;SDS011;16320;53.954;9.506;2022-10-31T02:58:38;101.18;;;39.00;;
29314;SDS011;16320;53.954;9.506;2022-10-31T03:08:34;90.35;;;34.70;;
29314;SDS011;16320;53.954;9.506;2022-10-31T03:11:52;80.75;;;34.00;;
29314;SDS011;16320;53.954;9.506;2022-10-31T03:15:12;84.40;;;32.10;;
29314;SDS011;16320;53.954;9.506;2022-10-31T03:18:28;84.03;;;31.75;;
29314;SDS011;16320;53.954;9.506;2022-10-31T03:24:52;82.35;;;30.25;;
29314;SDS011;16320;53.954;9.506;2022-10-31T03:27:59;84.57;;;31.48;;
29314;SDS011;16320;53.954;9.506;2022-10-31T03:31:07;86.97;;;32.80;;
29314;SDS011;16320;53.954;9.506;2022-10-31T03:34:13;81.10;;;32.30;;
29314;SDS011;16320;53.954;9.506;2022-10-31T03:37:20;92.03;;;34.42;;
29314;SDS011;16320;53.954;9.506;2022-10-31T03:40:28;79.85;;;34.05;;
29314;SDS011;16320;53.954;9.506;2022-10-31T03:43:36;82.60;;;32.90;;
29314;SDS011;16320;53.954;9.506;2022-10-31T03:46:46;79.50;;;33.13;;
29314;SDS011;16320;53.954;9.506;2022-10-31T03:49:51;80.13;;;32.38;;
29314;SDS011;16320;53.954;9.506;2022-10-31T03:53:09;81.53;;;32.28;;
29314;SDS011;16320;53.954;9.506;2022-10-31T03:56:51;71.78;;;32.05;;
29314;SDS011;16320;53.954;9.506;2022-10-31T04:00:06;86.38;;;35.30;;
29314;SDS011;16320;53.954;9.506;2022-10-31T04:03:18;85.07;;;34.57;;
29314;SDS011;16320;53.954;9.506;2022-10-31T04:06:31;82.30;;;34.28;;
29314;SDS011;16320;53.954;9.506;2022-10-31T04:09:41;85.80;;;36.75;;
29314;SDS011;16320;53.954;9.506;2022-10-31T04:12:50;94.22;;;36.30;;
29314;SDS011;16320;53.954;9.506;2022-10-31T04:16:02;83.68;;;35.88;;
29314;SDS011;16320;53.954;9.506;2022-10-31T04:19:06;103.65;;;40.03;;
29314;SDS011;16320;53.954;9.506;2022-10-31T04:22:11;107.15;;;45.47;;
29314;SDS011;16320;53.954;9.506;2022-10-31T04:25:15;115.05;;;45.08;;
29314;SDS011;16320;53.954;9.506;2022-10-31T04:28:20;110.40;;;42.88;;
29314;SDS011;16320;53.954;9.506;2022-10-31T04:31:25;121.93;;;48.88;;
29314;SDS011;16320;53.954;9.506;2022-10-31T04:34:30;133.77;;;48.33;;
29314;SDS011;16320;53.954;9.506;2022-10-31T04:40:38;146.55;;;47.05;;
29314;SDS011;16320;53.954;9.506;2022-10-31T04:43:43;156.43;;;47.13;;
29314;SDS011;16320;53.954;9.506;2022-10-31T04:46:47;172.60;;;47.10;;
29314;SDS011;16320;53.954;9.506;2022-10-31T04:49:52;176.70;;;46.30;;
29314;SDS011;16320;53.954;9.506;2022-10-31T04:56:00;181.95;;;43.50;;
29314;SDS011;16320;53.954;9.506;2022-10-31T04:59:04;218.30;;;41.13;;
29314;SDS011;16320;53.954;9.506;2022-10-31T05:02:08;222.85;;;40.50;;
29314;SDS011;16320;53.954;9.506;2022-10-31T05:05:13;204.52;;;39.45;;
29314;SDS011;16320;53.954;9.506;2022-10-31T05:08:19;176.82;;;37.13;;
29314;SDS011;16320;53.954;9.506;2022-10-31T05:11:23;308.77;;;40.20;;
29314;SDS011;16320;53.954;9.506;2022-10-31T05:14:28;229.10;;;35.85;;
29314;SDS011;16320;53.954;9.506;2022-10-31T05:17:32;238.85;;;33.42;;
29314;SDS011;16320;53.954;9.506;2022-10-31T05:20:37;301.77;;;35.30;;
29314;SDS011;16320;53.954;9.506;2022-10-31T05:23:41;242.98;;;33.95;;
29314;SDS011;16320;53.954;9.506;2022-10-31T05:26:51;167.27;;;33.67;;
29314;SDS011;16320;53.954;9.506;2022-10-31T05:29:55;200.88;;;37.08;;
29314;SDS011;16320;53.954;9.506;2022-10-31T05:33:00;349.13;;;39.00;;
29314;SDS011;16320;53.954;9.506;2022-10-31T05:36:05;281.50;;;35.05;;
29314;SDS011;16320;53.954;9.506;2022-10-31T05:39:10;171.50;;;31.40;;
29314;SDS011;16320;53.954;9.506;2022-10-31T05:42:14;292.67;;;35.10;;
29314;SDS011;16320;53.954;9.506;2022-10-31T05:45:19;224.93;;;34.25;;
29314;SDS011;16320;53.954;9.506;2022-10-31T05:48:25;317.98;;;36.47;;
29314;SDS011;16320;53.954;9.506;2022-10-31T05:51:29;199.90;;;34.75;;
29314;SDS011;16320;53.954;9.506;2022-10-31T05:54:33;267.58;;;33.28;;
29314;SDS011;16320;53.954;9.506;2022-10-31T05:57:38;289.73;;;35.38;;
29314;SDS011;16320;53.954;9.506;2022-10-31T06:00:42;176.27;;;33.28;;
29314;SDS011;16320;53.954;9.506;2022-10-31T06:03:46;203.85;;;38.33;;
29314;SDS011;16320;53.954;9.506;2022-10-31T06:06:51;176.23;;;36.72;;
29314;SDS011;16320;53.954;9.506;2022-10-31T06:09:55;194.15;;;38.50;;
29314;SDS011;16320;53.954;9.506;2022-10-31T06:13:00;202.52;;;43.30;;
29314;SDS011;16320;53.954;9.506;2022-10-31T06:19:08;189.73;;;42.22;;
29314;SDS011;16320;53.954;9.506;2022-10-31T06:22:12;188.60;;;43.45;;
29314;SDS011;16320;53.954;9.506;2022-10-31T06:25:17;181.70;;;44.15;;
29314;SDS011;16320;53.954;9.506;2022-10-31T06:28:22;209.05;;;44.70;;
29314;SDS011;16320;53.954;9.506;2022-10-31T06:31:26;191.10;;;44.95;;
29314;SDS011;16320;53.954;9.506;2022-10-31T06:34:31;232.32;;;54.25;;
29314;SDS011;16320;53.954;9.506;2022-10-31T06:37:36;223.38;;;60.97;;
29314;SDS011;16320;53.954;9.506;2022-10-31T06:40:41;217.18;;;58.65;;
29314;SDS011;16320;53.954;9.506;2022-10-31T06:43:48;202.30;;;54.63;;
29314;SDS011;16320;53.954;9.506;2022-10-31T06:46:52;190.98;;;54.10;;
29314;SDS011;16320;53.954;9.506;2022-10-31T06:49:57;177.90;;;52.65;;
29314;SDS011;16320;53.954;9.506;2022-10-31T06:53:01;171.02;;;50.25;;
29314;SDS011;16320;53.954;9.506;2022-10-31T06:56:08;178.32;;;52.03;;
29314;SDS011;16320;53.954;9.506;2022-10-31T06:59:12;219.48;;;69.22;;
29314;SDS011;16320;53.954;9.506;2022-10-31T07:02:18;179.25;;;52.72;;
29314;SDS011;16320;53.954;9.506;2022-10-31T07:05:22;188.80;;;49.78;;
29314;SDS011;16320;53.954;9.506;2022-10-31T07:08:28;175.02;;;51.75;;
29314;SDS011;16320;53.954;9.506;2022-10-31T07:11:33;180.20;;;54.80;;
29314;SDS011;16320;53.954;9.506;2022-10-31T07:14:37;209.77;;;49.05;;
29314;SDS011;16320;53.954;9.506;2022-10-31T07:17:41;183.00;;;52.05;;
29314;SDS011;16320;53.954;9.506;2022-10-31T07:20:46;171.05;;;49.63;;
29314;SDS011;16320;53.954;9.506;2022-10-31T07:23:51;165.80;;;50.08;;
29314;SDS011;16320;53.954;9.506;2022-10-31T07:26:56;165.18;;;44.55;;
29314;SDS011;16320;53.954;9.506;2022-10-31T07:30:05;160.95;;;43.72;;
29314;SDS011;16320;53.954;9.506;2022-10-31T07:33:11;150.73;;;42.53;;
29314;SDS011;16320;53.954;9.506;2022-10-31T07:36:16;157.52;;;44.78;;
29314;SDS011;16320;53.954;9.506;2022-10-31T07:39:21;184.93;;;47.17;;
29314;SDS011;16320;53.954;9.506;2022-10-31T07:42:25;157.70;;;46.22;;
29314;SDS011;16320;53.954;9.506;2022-10-31T07:45:31;147.63;;;38.58;;
29314;SDS011;16320;53.954;9.506;2022-10-31T07:48:36;134.70;;;37.63;;
29314;SDS011;16320;53.954;9.506;2022-10-31T07:51:40;137.15;;;37.40;;
29314;SDS011;16320;53.954;9.506;2022-10-31T07:54:49;131.75;;;37.83;;
29314;SDS011;16320;53.954;9.506;2022-10-31T07:58:04;138.18;;;38.60;;
29314;SDS011;16320;53.954;9.506;2022-10-31T08:01:19;148.40;;;39.08;;
29314;SDS011;16320;53.954;9.506;2022-10-31T08:04:23;136.88;;;38.80;;
29314;SDS011;16320;53.954;9.506;2022-10-31T08:07:28;123.20;;;36.67;;
29314;SDS011;16320;53.954;9.506;2022-10-31T08:10:33;124.97;;;37.00;;
29314;SDS011;16320;53.954;9.506;2022-10-31T08:13:38;130.07;;;37.92;;
29314;SDS011;16320;53.954;9.506;2022-10-31T08:16:43;128.55;;;38.60;;
29314;SDS011;16320;53.954;9.506;2022-10-31T08:19:47;139.35;;;37.72;;
29314;SDS011;16320;53.954;9.506;2022-10-31T08:22:59;125.90;;;38.25;;
29314;SDS011;16320;53.954;9.506;2022-10-31T08:26:05;123.10;;;41.20;;
29314;SDS011;16320;53.954;9.506;2022-10-31T08:29:10;117.60;;;41.65;;
29314;SDS011;16320;53.954;9.506;2022-10-31T08:32:14;123.53;;;40.97;;
29314;SDS011;16320;53.954;9.506;2022-10-31T08:35:19;111.32;;;37.78;;
29314;SDS011;16320;53.954;9.506;2022-10-31T08:38:23;113.63;;;38.72;;
29314;SDS011;16320;53.954;9.506;2022-10-31T08:41:28;110.65;;;37.10;;
29314;SDS011;16320;53.954;9.506;2022-10-31T08:44:34;108.05;;;37.92;;
29314;SDS011;16320;53.954;9.506;2022-10-31T08:47:39;113.28;;;39.67;;
29314;SDS011;16320;53.954;9.506;2022-10-31T08:50:43;90.75;;;36.00;;
29314;SDS011;16320;53.954;9.506;2022-10-31T08:53:48;113.85;;;38.25;;
29314;SDS011;16320;53.954;9.506;2022-10-31T08:56:53;100.68;;;37.10;;
29314;SDS011;16320;53.954;9.506;2022-10-31T08:59:59;115.50;;;38.67;;
29314;SDS011;16320;53.954;9.506;2022-10-31T09:03:04;111.70;;;38.20;;
29314;SDS011;16320;53.954;9.506;2022-10-31T09:06:14;109.07;;;40.50;;
29314;SDS011;16320;53.954;9.506;2022-10-31T09:09:19;116.55;;;40.40;;
29314;SDS011;16320;53.954;9.506;2022-10-31T09:12:23;113.03;;;39.90;;
29314;SDS011;16320;53.954;9.506;2022-10-31T09:15:27;106.88;;;37.95;;
29314;SDS011;16320;53.954;9.506;2022-10-31T09:18:33;107.70;;;40.13;;
29314;SDS011;16320;53.954;9.506;2022-10-31T09:21:37;121.05;;;40.92;;
29314;SDS011;16320;53.954;9.506;2022-10-31T09:24:42;108.05;;;40.53;;
29314;SDS011;16320;53.954;9.506;2022-10-31T09:27:47;114.90;;;39.50;;
29314;SDS011;16320;53.954;9.506;2022-10-31T09:30:51;105.22;;;39.55;;
29314;SDS011;16320;53.954;9.506;2022-10-31T09:33:57;102.32;;;37.65;;
29314;SDS011;16320;53.954;9.506;2022-10-31T09:37:01;102.70;;;38.55;;
29314;SDS011;16320;53.954;9.506;2022-10-31T09:40:06;100.32;;;37.42;;
29314;SDS011;16320;53.954;9.506;2022-10-31T09:50:17;84.25;;;31.55;;
29314;SDS011;16320;53.954;9.506;2022-10-31T09:53:32;92.00;;;35.42;;
29314;SDS011;16320;53.954;9.506;2022-10-31T09:57:04;76.32;;;32.22;;
29314;SDS011;16320;53.954;9.506;2022-10-31T10:00:15;88.13;;;32.30;;
29314;SDS011;16320;53.954;9.506;2022-10-31T10:03:26;77.45;;;25.05;;
29314;SDS011;16320;53.954;9.506;2022-10-31T10:07:08;66.22;;;23.00;;
29314;SDS011;16320;53.954;9.506;2022-10-31T10:10:36;60.67;;;21.08;;
29314;SDS011;16320;53.954;9.506;2022-10-31T10:17:16;73.88;;;23.52;;
29314;SDS011;16320;53.954;9.506;2022-10-31T10:31:42;76.78;;;23.98;;
29314;SDS011;16320;53.954;9.506;2022-10-31T10:34:50;78.38;;;25.10;;
29314;SDS011;16320;53.954;9.506;2022-10-31T10:41:41;74.07;;;25.25;;
29314;SDS011;16320;53.954;9.506;2022-10-31T10:45:17;74.20;;;24.02;;
29314;SDS011;16320;53.954;9.506;2022-10-31T10:48:45;67.53;;;22.85;;
29314;SDS011;16320;53.954;9.506;2022-10-31T10:52:24;70.03;;;22.95;;
29314;SDS011;16320;53.954;9.506;2022-10-31T10:55:53;70.88;;;23.30;;
29314;SDS011;16320;53.954;9.506;2022-10-31T10:59:24;71.72;;;26.48;;
29314;SDS011;16320;53.954;9.506;2022-10-31T11:02:32;65.95;;;25.02;;
29314;SDS011;16320;53.954;9.506;2022-10-31T11:05:55;64.18;;;25.23;;
29314;SDS011;16320;53.954;9.506;2022-10-31T11:09:08;59.65;;;23.88;;
29314;SDS011;16320;53.954;9.506;2022-10-31T11:12:17;63.38;;;24.20;;
29314;SDS011;16320;53.954;9.506;2022-10-31T11:15:25;55.90;;;23.38;;
29314;SDS011;16320;53.954;9.506;2022-10-31T11:18:32;60.58;;;24.08;;
29314;SDS011;16320;53.954;9.506;2022-10-31T11:21:40;48.22;;;21.00;;
29314;SDS011;16320;53.954;9.506;2022-10-31T11:24:46;40.85;;;18.23;;
29314;SDS011;16320;53.954;9.506;2022-10-31T11:28:00;39.05;;;18.23;;
29314;SDS011;16320;53.954;9.506;2022-10-31T11:31:12;40.00;;;17.90;;
29314;SDS011;16320;53.954;9.506;2022-10-31T11:34:23;37.70;;;17.48;;
29314;SDS011;16320;53.954;9.506;2022-10-31T11:37:42;33.30;;;15.82;;
29314;SDS011;16320;53.954;9.506;2022-10-31T11:40:53;34.03;;;14.88;;
29314;SDS011;16320;53.954;9.506;2022-10-31T11:44:05;27.48;;;13.40;;
29314;SDS011;16320;53.954;9.506;2022-10-31T11:47:30;22.33;;;12.13;;
29314;SDS011;16320;53.954;9.506;2022-10-31T11:50:40;25.88;;;12.18;;
29314;SDS011;16320;53.954;9.506;2022-10-31T11:53:52;24.50;;;12.77;;
29314;SDS011;16320;53.954;9.506;2022-10-31T11:57:07;21.02;;;11.65;;
29314;SDS011;16320;53.954;9.506;2022-10-31T12:00:48;25.95;;;12.23;;
29314;SDS011;16320;53.954;9.506;2022-10-31T12:07:15;16.60;;;10.63;;
29314;SDS011;16320;53.954;9.506;2022-10-31T12:10:21;30.05;;;11.70;;
29314;SDS011;16320;53.954;9.506;2022-10-31T12:17:18;29.95;;;12.63;;
29314;SDS011;16320;53.954;9.506;2022-10-31T12:24:38;22.70;;;10.63;;
29314;SDS011;16320;53.954;9.506;2022-10-31T12:39:24;25.85;;;12.15;;
29314;SDS011;16320;53.954;9.506;2022-10-31T12:46:12;77.93;;;14.88;;
29314;SDS011;16320;53.954;9.506;2022-10-31T12:53:53;21.20;;;10.65;;
29314;SDS011;16320;53.954;9.506;2022-10-31T13:00:38;39.42;;;12.07;;
29314;SDS011;16320;53.954;9.506;2022-10-31T13:03:52;20.75;;;11.63;;
29314;SDS011;16320;53.954;9.506;2022-10-31T13:07:06;19.92;;;10.35;;
29314;SDS011;16320;53.954;9.506;2022-10-31T13:10:22;20.92;;;11.23;;
29314;SDS011;16320;53.954;9.506;2022-10-31T13:14:01;24.80;;;9.77;;
29314;SDS011;16320;53.954;9.506;2022-10-31T13:17:39;17.48;;;9.20;;
29314;SDS011;16320;53.954;9.506;2022-10-31T13:21:24;20.75;;;10.45;;
29314;SDS011;16320;53.954;9.506;2022-10-31T13:28:16;19.73;;;10.43;;
29314;SDS011;16320;53.954;9.506;2022-10-31T13:31:29;25.08;;;11.50;;
29314;SDS011;16320;53.954;9.506;2022-10-31T13:37:47;24.52;;;11.40;;
29314;SDS011;16320;53.954;9.506;2022-10-31T13:47:57;22.65;;;12.18;;
29314;SDS011;16320;53.954;9.506;2022-10-31T13:51:29;27.48;;;12.75;;
29314;SDS011;16320;53.954;9.506;2022-10-31T13:54:39;24.20;;;12.27;;
29314;SDS011;16320;53.954;9.506;2022-10-31T13:57:47;22.30;;;11.95;;
29314;SDS011;16320;53.954;9.506;2022-10-31T14:01:25;23.98;;;11.05;;
29314;SDS011;16320;53.954;9.506;2022-10-31T14:04:29;24.27;;;10.82;;
29314;SDS011;16320;53.954;9.506;2022-10-31T14:07:43;23.00;;;12.38;;
29314;SDS011;16320;53.954;9.506;2022-10-31T14:10:50;24.25;;;11.30;;
29314;SDS011;16320;53.954;9.506;2022-10-31T14:13:58;17.95;;;10.00;;
29314;SDS011;16320;53.954;9.506;2022-10-31T14:17:04;15.55;;;8.48;;
29314;SDS011;16320;53.954;9.506;2022-10-31T14:26:37;17.65;;;9.18;;
29314;SDS011;16320;53.954;9.506;2022-10-31T14:29:41;16.88;;;8.93;;
29314;SDS011;16320;53.954;9.506;2022-10-31T14:32:54;13.77;;;8.88;;
29314;SDS011;16320;53.954;9.506;2022-10-31T14:36:09;19.80;;;8.75;;
29314;SDS011;16320;53.954;9.506;2022-10-31T14:39:31;17.08;;;7.72;;
29314;SDS011;16320;53.954;9.506;2022-10-31T14:50:35;21.60;;;10.20;;
29314;SDS011;16320;53.954;9.506;2022-10-31T14:53:51;21.88;;;9.75;;
29314;SDS011;16320;53.954;9.506;2022-10-31T14:56:59;25.02;;;10.43;;
29314;SDS011;16320;53.954;9.506;2022-10-31T15:00:27;19.52;;;10.10;;
29314;SDS011;16320;53.954;9.506;2022-10-31T15:03:36;22.23;;;10.95;;
29314;SDS011;16320;53.954;9.506;2022-10-31T15:10:21;20.10;;;8.70;;
29314;SDS011;16320;53.954;9.506;2022-10-31T15:13:28;16.45;;;8.68;;
29314;SDS011;16320;53.954;9.506;2022-10-31T15:16:35;16.30;;;8.45;;
29314;SDS011;16320;53.954;9.506;2022-10-31T15:19:45;22.90;;;8.95;;
29314;SDS011;16320;53.954;9.506;2022-10-31T15:22:51;20.45;;;9.80;;
29314;SDS011;16320;53.954;9.506;2022-10-31T15:25:59;17.73;;;8.55;;
29314;SDS011;16320;53.954;9.506;2022-10-31T15:29:13;14.57;;;8.50;;
29314;SDS011;16320;53.954;9.506;2022-10-31T15:35:28;21.85;;;8.45;;
29314;SDS011;16320;53.954;9.506;2022-10-31T15:38:34;19.23;;;9.35;;
29314;SDS011;16320;53.954;9.506;2022-10-31T15:41:49;19.85;;;9.75;;
29314;SDS011;16320;53.954;9.506;2022-10-31T15:48:17;16.35;;;8.93;;
29314;SDS011;16320;53.954;9.506;2022-10-31T15:51:29;21.05;;;10.20;;
29314;SDS011;16320;53.954;9.506;2022-10-31T15:54:40;24.85;;;10.50;;
29314;SDS011;16320;53.954;9.506;2022-10-31T15:58:01;21.77;;;9.90;;
29314;SDS011;16320;53.954;9.506;2022-10-31T16:01:20;23.38;;;10.18;;
29314;SDS011;16320;53.954;9.506;2022-10-31T16:04:33;19.52;;;10.57;;
29314;SDS011;16320;53.954;9.506;2022-10-31T16:07:37;21.27;;;10.75;;
29314;SDS011;16320;53.954;9.506;2022-10-31T16:10:54;20.73;;;11.30;;
29314;SDS011;16320;53.954;9.506;2022-10-31T16:17:16;22.05;;;11.82;;
29314;SDS011;16320;53.954;9.506;2022-10-31T16:20:25;27.05;;;12.77;;
29314;SDS011;16320;53.954;9.506;2022-10-31T16:23:35;30.30;;;13.63;;
29314;SDS011;16320;53.954;9.506;2022-10-31T16:26:46;25.67;;;13.35;;
29314;SDS011;16320;53.954;9.506;2022-10-31T16:29:56;30.20;;;15.85;;
29314;SDS011;16320;53.954;9.506;2022-10-31T16:33:21;30.20;;;15.18;;
29314;SDS011;16320;53.954;9.506;2022-10-31T16:36:44;34.83;;;15.90;;
29314;SDS011;16320;53.954;9.506;2022-10-31T16:39:49;31.83;;;15.95;;
29314;SDS011;16320;53.954;9.506;2022-10-31T16:42:53;32.88;;;15.85;;
29314;SDS011;16320;53.954;9.506;2022-10-31T16:46:02;33.47;;;16.20;;
29314;SDS011;16320;53.954;9.506;2022-10-31T16:49:08;33.10;;;15.88;;
29314;SDS011;16320;53.954;9.506;2022-10-31T16:52:13;39.33;;;16.63;;
29314;SDS011;16320;53.954;9.506;2022-10-31T16:55:19;34.28;;;17.35;;
29314;SDS011;16320;53.954;9.506;2022-10-31T16:58:30;32.30;;;16.90;;
29314;SDS011;16320;53.954;9.506;2022-10-31T17:01:38;34.70;;;18.05;;
29314;SDS011;16320;53.954;9.506;2022-10-31T17:04:46;32.95;;;16.05;;
29314;SDS011;16320;53.954;9.506;2022-10-31T17:07:56;39.65;;;17.42;;
29314;SDS011;16320;53.954;9.506;2022-10-31T17:11:01;38.35;;;18.08;;
29314;SDS011;16320;53.954;9.506;2022-10-31T17:14:06;39.25;;;17.67;;
29314;SDS011;16320;53.954;9.506;2022-10-31T17:17:12;38.15;;;17.95;;
29314;SDS011;16320;53.954;9.506;2022-10-31T17:20:21;34.25;;;17.73;;
29314;SDS011;16320;53.954;9.506;2022-10-31T17:23:29;40.58;;;20.08;;
29314;SDS011;16320;53.954;9.506;2022-10-31T17:26:35;40.33;;;17.33;;
29314;SDS011;16320;53.954;9.506;2022-10-31T17:29:39;34.25;;;18.33;;
29314;SDS011;16320;53.954;9.506;2022-10-31T17:32:44;39.42;;;18.65;;
29314;SDS011;16320;53.954;9.506;2022-10-31T17:35:50;36.25;;;18.38;;
29314;SDS011;16320;53.954;9.506;2022-10-31T17:38:54;38.97;;;19.40;;
29314;SDS011;16320;53.954;9.506;2022-10-31T17:41:59;38.35;;;18.05;;
29314;SDS011;16320;53.954;9.506;2022-10-31T17:45:04;35.92;;;17.70;;
29314;SDS011;16320;53.954;9.506;2022-10-31T17:48:10;40.30;;;18.33;;
29314;SDS011;16320;53.954;9.506;2022-10-31T17:51:15;40.38;;;20.23;;
29314;SDS011;16320;53.954;9.506;2022-10-31T17:54:20;41.65;;;20.20;;
29314;SDS011;16320;53.954;9.506;2022-10-31T17:57:25;43.28;;;19.98;;
29314;SDS011;16320;53.954;9.506;2022-10-31T18:00:30;35.70;;;18.65;;
29314;SDS011;16320;53.954;9.506;2022-10-31T18:03:36;43.10;;;20.35;;
29314;SDS011;16320;53.954;9.506;2022-10-31T18:06:41;42.83;;;18.95;;
29314;SDS011;16320;53.954;9.506;2022-10-31T18:09:46;39.85;;;19.38;;
29314;SDS011;16320;53.954;9.506;2022-10-31T18:12:51;41.20;;;19.38;;
29314;SDS011;16320;53.954;9.506;2022-10-31T18:15:55;50.92;;;21.25;;
29314;SDS011;16320;53.954;9.506;2022-10-31T18:18:59;46.60;;;20.55;;
29314;SDS011;16320;53.954;9.506;2022-10-31T18:22:08;48.17;;;22.02;;
29314;SDS011;16320;53.954;9.506;2022-10-31T18:25:13;51.33;;;23.13;;
29314;SDS011;16320;53.954;9.506;2022-10-31T18:28:17;48.95;;;22.55;;
29314;SDS011;16320;53.954;9.506;2022-10-31T18:31:21;50.78;;;22.70;;
29314;SDS011;16320;53.954;9.506;2022-10-31T18:34:26;52.72;;;23.48;;
29314;SDS011;16320;53.954;9.506;2022-10-31T18:37:31;52.60;;;22.65;;
29314;SDS011;16320;53.954;9.506;2022-10-31T18:40:35;51.05;;;25.13;;
29314;SDS011;16320;53.954;9.506;2022-10-31T18:46:44;50.33;;;23.92;;
29314;SDS011;16320;53.954;9.506;2022-10-31T18:49:48;55.28;;;25.48;;
29314;SDS011;16320;53.954;9.506;2022-10-31T18:52:53;50.75;;;24.25;;
29314;SDS011;16320;53.954;9.506;2022-10-31T18:55:57;50.47;;;23.77;;
29314;SDS011;16320;53.954;9.506;2022-10-31T18:59:02;47.58;;;23.52;;
29314;SDS011;16320;53.954;9.506;2022-10-31T19:02:11;53.80;;;25.75;;
29314;SDS011;16320;53.954;9.506;2022-10-31T19:05:17;53.42;;;25.45;;
29314;SDS011;16320;53.954;9.506;2022-10-31T19:08:24;61.67;;;24.33;;
29314;SDS011;16320;53.954;9.506;2022-10-31T19:11:30;52.65;;;25.02;;
29314;SDS011;16320;53.954;9.506;2022-10-31T19:14:36;51.42;;;24.83;;
29314;SDS011;16320;53.954;9.506;2022-10-31T19:17:40;53.83;;;24.80;;
29314;SDS011;16320;53.954;9.506;2022-10-31T19:20:45;51.53;;;25.67;;
29314;SDS011;16320;53.954;9.506;2022-10-31T19:23:50;55.47;;;27.08;;
29314;SDS011;16320;53.954;9.506;2022-10-31T19:26:56;61.70;;;25.30;;
29314;SDS011;16320;53.954;9.506;2022-10-31T19:30:04;61.30;;;26.73;;
29314;SDS011;16320;53.954;9.506;2022-10-31T19:33:09;52.70;;;25.52;;
29314;SDS011;16320;53.954;9.506;2022-10-31T19:36:15;54.08;;;26.10;;
29314;SDS011;16320;53.954;9.506;2022-10-31T19:39:21;60.97;;;27.40;;
29314;SDS011;16320;53.954;9.506;2022-10-31T19:42:26;57.58;;;26.20;;
29314;SDS011;16320;53.954;9.506;2022-10-31T19:45:31;58.13;;;25.63;;
29314;SDS011;16320;53.954;9.506;2022-10-31T19:48:36;63.78;;;27.20;;
29314;SDS011;16320;53.954;9.506;2022-10-31T19:51:42;56.67;;;25.55;;
29314;SDS011;16320;53.954;9.506;2022-10-31T19:54:46;55.22;;;24.60;;
29314;SDS011;16320;53.954;9.506;2022-10-31T19:57:51;52.97;;;25.38;;
29314;SDS011;16320;53.954;9.506;2022-10-31T20:01:12;60.40;;;25.13;;
29314;SDS011;16320;53.954;9.506;2022-10-31T20:04:19;59.58;;;25.70;;
29314;SDS011;16320;53.954;9.506;2022-10-31T20:07:23;59.75;;;26.25;;
29314;SDS011;16320;53.954;9.506;2022-10-31T20:10:28;65.05;;;27.65;;
29314;SDS011;16320;53.954;9.506;2022-10-31T20:13:33;64.78;;;27.17;;
29314;SDS011;16320;53.954;9.506;2022-10-31T20:16:37;63.58;;;26.70;;
29314;SDS011;16320;53.954;9.506;2022-10-31T20:19:41;64.70;;;25.98;;
29314;SDS011;16320;53.954;9.506;2022-10-31T20:22:46;63.55;;;26.42;;
29314;SDS011;16320;53.954;9.506;2022-10-31T20:25:53;65.55;;;27.92;;
29314;SDS011;16320;53.954;9.506;2022-10-31T20:28:58;62.10;;;28.13;;
29314;SDS011;16320;53.954;9.506;2022-10-31T20:32:04;68.50;;;27.10;;
29314;SDS011;16320;53.954;9.506;2022-10-31T20:35:08;70.40;;;28.60;;
29314;SDS011;16320;53.954;9.506;2022-10-31T20:38:13;66.38;;;28.13;;
29314;SDS011;16320;53.954;9.506;2022-10-31T20:41:17;70.10;;;29.00;;
29314;SDS011;16320;53.954;9.506;2022-10-31T20:44:22;63.95;;;27.30;;
29314;SDS011;16320;53.954;9.506;2022-10-31T20:47:27;65.18;;;28.30;;